createdAt,value
2022-09-01T00:01:08.041Z,75.25
2022-09-01T00:06:07.992Z,75.55
2022-09-01T00:11:07.916Z,75.55
2022-09-01T00:16:07.920Z,75.76
2022-09-01T00:21:07.773Z,75.86
2022-09-01T00:26:07.709Z,76.00
2022-09-01T00:31:07.695Z,76.40
2022-09-01T00:36:07.581Z,76.30
2022-09-01T00:41:07.510Z,76.09
2022-09-01T00:46:07.498Z,76.40
2022-09-01T00:51:07.391Z,76.50
2022-09-01T00:56:07.343Z,76.40
2022-09-01T01:01:07.290Z,76.50
2022-09-01T01:06:07.198Z,76.94
2022-09-01T01:11:07.109Z,77.25
2022-09-01T01:16:07.053Z,77.55
2022-09-01T01:21:06.976Z,77.86
2022-09-01T01:26:06.916Z,77.45
2022-09-01T01:31:07.004Z,77.75
2022-09-01T01:36:06.796Z,78.16
2022-09-01T01:41:06.712Z,78.40
2022-09-01T01:46:06.789Z,78.50
2022-09-01T01:51:06.577Z,79.11
2022-09-01T01:56:06.535Z,79.35
2022-09-01T02:01:06.595Z,79.15
2022-09-01T02:06:06.390Z,79.96
2022-09-01T02:11:06.316Z,80.06
2022-09-01T02:16:06.267Z,80.27
2022-09-01T02:21:06.184Z,80.06
2022-09-01T02:26:15.992Z,79.76
2022-09-01T02:31:06.116Z,79.90
2022-09-01T02:36:06.007Z,80.61
2022-09-01T02:41:05.925Z,80.71
2022-09-01T02:46:05.942Z,80.31
2022-09-01T02:51:05.810Z,80.71
2022-09-01T02:56:05.742Z,81.12
2022-09-01T03:01:05.912Z,81.53
2022-09-01T03:06:05.610Z,81.76
2022-09-01T03:11:08.620Z,81.87
2022-09-01T03:16:05.535Z,81.76
2022-09-01T03:21:05.410Z,81.67
2022-09-01T03:26:05.356Z,81.76
2022-09-01T03:31:05.277Z,81.76
2022-09-01T03:36:05.233Z,81.87
2022-09-01T03:41:05.149Z,82.01
2022-09-01T03:46:05.137Z,82.62
2022-09-01T03:51:05.026Z,82.72
2022-09-01T03:56:04.966Z,82.96
2022-09-01T04:01:04.988Z,83.47
2022-09-01T04:06:04.838Z,84.08
2022-09-01T04:11:04.751Z,84.12
2022-09-01T04:16:04.793Z,84.63
2022-09-01T04:21:04.630Z,84.94
2022-09-01T04:26:04.581Z,85.24
2022-09-01T04:31:04.498Z,85.08
2022-09-01T04:36:04.429Z,84.97
2022-09-01T04:41:04.358Z,83.95
2022-09-01T04:46:04.360Z,83.86
2022-09-01T04:51:04.233Z,83.75
2022-09-01T04:56:04.174Z,83.92
2022-09-01T05:01:04.208Z,82.62
2022-09-01T05:06:04.077Z,81.22
2022-09-01T05:11:03.970Z,76.36
2022-09-01T05:16:03.986Z,73.76
2022-09-01T05:21:03.838Z,71.36
2022-09-01T05:26:03.769Z,70.15
2022-09-01T05:31:03.750Z,67.90
2022-09-01T05:36:03.641Z,66.09
2022-09-01T05:41:03.567Z,64.58
2022-09-01T05:46:06.971Z,63.42
2022-09-01T05:51:03.460Z,62.89
2022-09-01T05:56:03.392Z,62.25
2022-09-01T06:01:03.316Z,60.59
2022-09-01T06:06:03.245Z,60.26
2022-09-01T06:11:03.182Z,58.77
2022-09-01T06:16:03.160Z,57.44
2022-09-01T06:21:03.049Z,56.69
2022-09-01T06:26:02.980Z,55.11
2022-09-01T06:31:02.979Z,54.81
2022-09-01T06:36:02.864Z,55.54
2022-09-01T06:41:02.790Z,54.48
2022-09-01T06:46:02.730Z,53.01
2022-09-01T06:51:20.513Z,51.04
2022-09-01T06:56:03.632Z,48.91
2022-09-01T07:01:02.530Z,49.93
2022-09-01T07:06:02.964Z,49.43
2022-09-01T07:26:04.412Z,49.50
2022-09-01T07:31:48.899Z,48.80
2022-09-01T07:42:31.425Z,49.70
2022-09-01T07:46:36.742Z,52.21
2022-09-01T07:56:02.855Z,52.21
2022-09-01T08:01:01.755Z,52.27
2022-09-01T08:06:01.689Z,50.42
2022-09-01T08:11:05.002Z,49.88
2022-09-01T08:16:15.971Z,51.49
2022-09-01T08:21:02.530Z,53.36
2022-09-01T08:26:01.438Z,53.28
2022-09-01T08:31:01.442Z,53.33
2022-09-01T08:36:01.327Z,53.74
2022-09-01T08:41:01.321Z,52.27
2022-09-01T08:46:01.267Z,50.75
2022-09-01T08:51:01.137Z,51.14
2022-09-01T08:56:01.095Z,50.32
2022-09-01T09:01:01.012Z,50.90
2022-09-01T09:06:00.941Z,49.53
2022-09-01T09:11:00.884Z,48.52
2022-09-01T09:16:08.613Z,48.59
2022-09-01T09:21:00.745Z,48.00
2022-09-01T09:26:00.689Z,48.37
2022-09-01T09:31:00.706Z,48.41
2022-09-01T09:36:00.569Z,47.97
2022-09-01T09:41:16.518Z,50.15
2022-09-01T09:46:01.492Z,51.54
2022-09-01T09:51:00.378Z,47.52
2022-09-01T09:56:00.329Z,46.96
2022-09-01T10:01:00.322Z,47.26
2022-09-01T10:06:01.071Z,47.52
2022-09-01T10:11:00.152Z,47.76
2022-09-01T10:16:00.091Z,46.30
2022-09-01T10:20:59.998Z,46.25
2022-09-01T10:25:59.941Z,48.26
2022-09-01T10:30:59.915Z,49.10
2022-09-01T10:35:59.813Z,50.64
2022-09-01T10:40:59.802Z,50.14
2022-09-01T10:46:05.709Z,50.49
2022-09-01T10:51:00.836Z,50.59
2022-09-01T10:56:01.921Z,51.07
2022-09-01T11:01:25.333Z,49.45
2022-09-01T11:06:12.144Z,49.07
2022-09-01T11:11:00.420Z,47.68
2022-09-01T11:16:00.785Z,47.58
2022-09-01T11:20:59.253Z,46.21
2022-09-01T11:31:00.178Z,50.19
2022-09-01T11:35:59.052Z,50.62
2022-09-01T11:40:59.079Z,46.80
2022-09-01T11:45:59.020Z,47.82
2022-09-01T11:50:58.864Z,46.22
2022-09-01T11:55:58.789Z,44.20
2022-09-01T12:00:58.716Z,43.48
2022-09-01T12:05:58.667Z,43.38
2022-09-01T12:10:58.595Z,43.67
2022-09-01T12:16:17.428Z,42.05
2022-09-01T12:20:59.491Z,45.28
2022-09-01T12:25:58.393Z,46.52
2022-09-01T12:30:58.329Z,45.03
2022-09-01T12:35:59.611Z,43.45
2022-09-01T12:40:58.197Z,44.23
2022-09-01T12:45:58.243Z,41.31
2022-09-01T12:50:58.072Z,43.10
2022-09-01T12:55:58.011Z,41.11
2022-09-01T13:00:58.083Z,41.81
2022-09-01T13:05:57.895Z,41.91
2022-09-01T13:10:57.810Z,40.61
2022-09-01T13:15:57.770Z,42.29
2022-09-01T13:20:57.680Z,42.09
2022-09-01T13:25:58.062Z,42.99
2022-09-01T13:35:58.601Z,43.18
2022-09-01T13:40:57.496Z,43.51
2022-09-01T13:45:57.435Z,42.51
2022-09-01T14:00:57.200Z,45.30
2022-09-01T14:05:57.121Z,44.80
2022-09-01T14:10:57.130Z,44.83
2022-09-01T14:15:57.006Z,44.11
2022-09-01T14:20:56.901Z,43.51
2022-09-01T14:25:56.831Z,44.11
2022-09-01T14:31:41.669Z,43.21
2022-09-01T14:36:41.592Z,43.31
2022-09-01T14:41:41.533Z,43.23
2022-09-01T14:46:41.548Z,42.63
2022-09-01T14:56:42.398Z,43.13
2022-09-01T15:01:41.366Z,44.07
2022-09-01T15:06:41.202Z,43.69
2022-09-01T15:11:44.008Z,43.59
2022-09-01T15:16:41.069Z,43.69
2022-09-01T15:21:41.022Z,43.89
2022-09-01T15:26:40.983Z,44.09
2022-09-01T15:31:40.935Z,44.19
2022-09-01T15:36:40.802Z,43.99
2022-09-01T15:41:40.743Z,44.09
2022-09-01T15:46:40.697Z,43.91
2022-09-01T15:51:40.603Z,44.61
2022-09-01T15:56:40.530Z,44.91
2022-09-01T16:01:40.523Z,44.61
2022-09-01T16:06:40.396Z,44.51
2022-09-01T16:11:40.352Z,44.51
2022-09-01T16:16:41.129Z,45.41
2022-09-01T16:21:40.224Z,45.71
2022-09-01T16:26:40.132Z,46.61
2022-09-01T16:31:40.200Z,46.71
2022-09-01T16:36:40.015Z,46.33
2022-09-01T16:41:39.951Z,46.63
2022-09-01T16:46:39.923Z,46.63
2022-09-01T16:51:39.842Z,45.83
2022-09-01T16:56:39.751Z,46.33
2022-09-01T17:01:39.764Z,46.13
2022-09-01T17:06:39.612Z,45.75
2022-09-01T17:11:39.561Z,45.86
2022-09-01T17:16:39.491Z,45.66
2022-09-01T17:21:39.427Z,45.66
2022-09-01T17:26:39.355Z,46.98
2022-09-01T17:31:39.340Z,48.28
2022-09-01T17:36:41.323Z,49.81
2022-09-01T17:41:39.164Z,50.61
2022-09-01T17:46:39.170Z,51.14
2022-09-01T17:51:39.026Z,51.34
2022-09-01T17:56:38.952Z,51.76
2022-09-01T18:01:38.950Z,51.76
2022-09-01T18:06:38.818Z,52.09
2022-09-01T18:11:38.759Z,52.09
2022-09-01T18:16:38.763Z,52.41
2022-09-01T18:21:38.619Z,52.61
2022-09-01T18:26:38.533Z,52.74
2022-09-01T18:31:38.506Z,53.14
2022-09-01T18:36:38.393Z,53.44
2022-09-01T18:41:38.342Z,53.87
2022-09-01T18:46:38.336Z,54.07
2022-09-01T18:51:38.215Z,54.47
2022-09-01T18:56:38.229Z,54.70
2022-09-01T19:01:38.185Z,55.10
2022-09-01T19:06:38.011Z,55.33
2022-09-01T19:11:37.941Z,55.83
2022-09-01T19:16:37.889Z,56.23
2022-09-01T19:21:37.822Z,56.64
2022-09-01T19:26:37.740Z,57.17
2022-09-01T19:31:37.686Z,57.77
2022-09-01T19:36:37.621Z,58.27
2022-09-01T19:41:37.567Z,58.70
2022-09-01T19:46:37.554Z,59.31
2022-09-01T19:51:37.427Z,59.84
2022-09-01T19:56:37.341Z,60.24
2022-09-01T20:01:37.382Z,60.65
2022-09-01T20:06:37.210Z,60.68
2022-09-01T20:11:37.147Z,60.88
2022-09-01T20:16:37.073Z,61.51
2022-09-01T20:21:37.034Z,62.42
2022-09-01T20:26:36.947Z,63.06
2022-09-01T20:31:36.887Z,63.18
2022-09-01T20:36:36.804Z,63.59
2022-09-01T20:41:39.534Z,64.33
2022-09-01T20:46:36.761Z,64.86
2022-09-01T20:51:36.619Z,65.70
2022-09-01T20:56:36.546Z,66.00
2022-09-01T21:01:36.567Z,66.41
2022-09-01T21:06:36.411Z,66.71
2022-09-01T21:11:36.351Z,67.35
2022-09-01T21:16:36.324Z,67.55
2022-09-01T21:21:36.224Z,68.09
2022-09-01T21:26:36.151Z,68.43
2022-09-01T21:31:36.078Z,68.53
2022-09-01T21:36:36.028Z,68.66
2022-09-01T21:41:35.959Z,68.86
2022-09-01T21:46:35.883Z,69.40
2022-09-01T21:51:35.836Z,70.01
2022-09-01T21:56:35.757Z,70.45
2022-09-01T22:01:35.800Z,71.16
2022-09-01T22:06:35.611Z,71.50
2022-09-01T22:11:35.547Z,71.60
2022-09-01T22:16:35.540Z,72.24
2022-09-01T22:21:35.410Z,72.34
2022-09-01T22:26:35.328Z,72.54
2022-09-01T22:31:35.275Z,72.85
2022-09-01T22:36:35.184Z,73.35
2022-09-01T22:41:35.137Z,73.19
2022-09-01T22:46:35.061Z,73.69
2022-09-01T22:51:34.998Z,74.61
2022-09-01T22:56:34.923Z,73.76
2022-09-01T23:01:34.965Z,73.56
2022-09-01T23:06:34.790Z,73.35
2022-09-01T23:11:34.731Z,73.59
2022-09-01T23:16:34.781Z,75.52
2022-09-01T23:21:34.589Z,76.54
2022-09-01T23:26:34.517Z,76.70
2022-09-01T23:31:34.548Z,76.26
2022-09-01T23:36:34.393Z,76.33
2022-09-01T23:41:34.329Z,76.43
2022-09-01T23:46:34.254Z,76.77
2022-09-01T23:51:34.203Z,76.97
2022-09-01T23:56:34.130Z,77.08
